createdAt,value
2022-10-03T00:03:00.832Z,13.60
2022-10-03T00:05:58.515Z,13.70
2022-10-03T00:09:16.510Z,13.60
2022-10-03T00:12:14.813Z,13.50
2022-10-03T00:15:05.485Z,13.50
2022-10-03T00:18:04.845Z,13.50
2022-10-03T00:21:15.217Z,13.50
2022-10-03T00:24:12.840Z,13.50
2022-10-03T00:27:04.232Z,13.50
2022-10-03T00:30:01.533Z,13.40
2022-10-03T00:33:03.190Z,13.40
2022-10-03T00:36:02.200Z,13.30
2022-10-03T00:39:09.849Z,13.30
2022-10-03T00:42:45.069Z,13.30
2022-10-03T00:46:05.826Z,13.30
2022-10-03T00:49:19.012Z,13.30
2022-10-03T00:52:21.423Z,13.20
2022-10-03T00:55:19.299Z,13.20
2022-10-03T00:58:29.803Z,13.20
2022-10-03T01:01:30.233Z,13.20
2022-10-03T01:04:35.946Z,13.20
2022-10-03T01:07:46.724Z,13.20
2022-10-03T01:10:42.601Z,13.20
2022-10-03T01:13:42.999Z,13.10
2022-10-03T01:16:37.972Z,13.20
2022-10-03T01:19:43.211Z,13.20
2022-10-03T01:22:59.368Z,13.30
2022-10-03T01:25:53.074Z,13.30
2022-10-03T01:29:05.338Z,13.30
2022-10-03T01:31:59.825Z,13.30
2022-10-03T01:34:55.488Z,13.30
2022-10-03T01:37:51.297Z,13.40
2022-10-03T01:40:41.315Z,13.40
2022-10-03T01:43:38.178Z,13.50
2022-10-03T01:46:38.753Z,13.50
2022-10-03T01:49:32.995Z,13.40
2022-10-03T01:52:26.556Z,13.40
2022-10-03T01:55:21.729Z,13.40
2022-10-03T01:58:13.902Z,13.40
2022-10-03T02:01:08.654Z,13.40
2022-10-03T02:04:05.313Z,13.40
2022-10-03T02:07:00.688Z,13.40
2022-10-03T02:09:59.297Z,13.30
2022-10-03T02:12:52.071Z,13.30
2022-10-03T02:15:54.552Z,13.30
2022-10-03T02:18:50.408Z,13.40
2022-10-03T02:21:49.880Z,13.40
2022-10-03T02:24:47.025Z,13.30
2022-10-03T02:27:58.777Z,13.20
2022-10-03T02:31:06.160Z,13.20
2022-10-03T02:34:17.249Z,13.20
2022-10-03T02:37:58.533Z,13.10
2022-10-03T02:41:25.646Z,13.10
2022-10-03T02:44:46.892Z,13.00
2022-10-03T02:48:31.379Z,12.80
2022-10-03T02:51:49.050Z,12.90
2022-10-03T02:54:57.924Z,12.80
2022-10-03T02:58:22.416Z,12.80
2022-10-03T03:01:26.243Z,12.80
2022-10-03T03:04:38.924Z,12.80
2022-10-03T03:07:48.328Z,12.90
2022-10-03T03:11:06.577Z,12.90
2022-10-03T03:14:17.234Z,13.00
2022-10-03T03:17:12.207Z,12.80
2022-10-03T03:20:21.120Z,12.80
2022-10-03T03:23:36.188Z,12.80
2022-10-03T03:26:50.659Z,12.80
2022-10-03T03:29:40.463Z,12.80
2022-10-03T03:32:44.090Z,12.80
2022-10-03T03:35:45.998Z,12.80
2022-10-03T03:38:40.835Z,12.70
2022-10-03T03:41:43.391Z,12.50
2022-10-03T03:45:05.834Z,12.50
2022-10-03T03:48:12.117Z,12.40
2022-10-03T03:51:12.945Z,12.40
2022-10-03T03:54:38.337Z,12.30
2022-10-03T03:58:02.712Z,12.30
2022-10-03T04:01:33.746Z,12.20
2022-10-03T04:04:41.204Z,12.20
2022-10-03T04:07:40.059Z,12.20
2022-10-03T04:10:36.045Z,12.20
2022-10-03T04:13:36.987Z,12.40
2022-10-03T04:17:17.645Z,12.50
2022-10-03T04:20:31.621Z,12.50
2022-10-03T04:23:39.425Z,12.50
2022-10-03T04:26:43.065Z,12.50
2022-10-03T04:29:58.148Z,12.60
2022-10-03T04:33:15.698Z,12.70
2022-10-03T04:36:34.687Z,12.80
2022-10-03T04:39:31.012Z,12.80
2022-10-03T04:42:28.576Z,12.90
2022-10-03T04:45:33.567Z,12.90
2022-10-03T04:48:28.983Z,12.80
2022-10-03T04:51:22.629Z,12.80
2022-10-03T04:54:21.355Z,12.80
2022-10-03T04:57:20.121Z,12.80
2022-10-03T05:00:22.073Z,12.90
2022-10-03T05:03:16.476Z,13.00
2022-10-03T05:06:11.149Z,13.00
2022-10-03T05:09:04.652Z,13.00
2022-10-03T05:12:00.717Z,12.90
2022-10-03T05:15:02.141Z,12.80
2022-10-03T05:17:58.001Z,12.80
2022-10-03T05:20:57.213Z,12.80
2022-10-03T05:23:52.521Z,12.90
2022-10-03T05:26:47.813Z,13.00
2022-10-03T05:29:41.085Z,13.00
2022-10-03T05:32:34.893Z,13.10
2022-10-03T05:35:30.245Z,13.10
2022-10-03T05:38:31.477Z,13.20
2022-10-03T05:41:26.525Z,13.20
2022-10-03T05:44:17.248Z,13.20
2022-10-03T05:47:31.837Z,13.20
2022-10-03T05:50:42.981Z,13.30
2022-10-03T05:53:54.593Z,13.30
2022-10-03T05:57:07.234Z,13.20
2022-10-03T06:00:10.552Z,13.30
2022-10-03T06:03:17.353Z,13.20
2022-10-03T06:06:21.054Z,13.10
2022-10-03T06:09:32.159Z,13.20
2022-10-03T06:12:28.033Z,13.10
2022-10-03T06:15:40.267Z,13.10
2022-10-03T06:18:48.688Z,13.10
2022-10-03T06:22:11.945Z,13.20
2022-10-03T06:25:36.678Z,13.20
2022-10-03T06:28:54.839Z,13.10
2022-10-03T06:32:22.223Z,13.10
2022-10-03T06:35:46.015Z,13.10
2022-10-03T06:39:12.078Z,13.00
2022-10-03T06:42:36.571Z,13.00
2022-10-03T06:45:56.432Z,13.00
2022-10-03T06:49:24.621Z,13.10
2022-10-03T06:52:25.612Z,13.10
2022-10-03T06:55:36.332Z,13.10
2022-10-03T06:59:05.429Z,13.20
2022-10-03T07:02:16.284Z,13.30
2022-10-03T07:05:40.825Z,13.30
2022-10-03T07:09:09.752Z,13.20
2022-10-03T07:12:31.501Z,13.30
2022-10-03T07:16:14.271Z,13.20
2022-10-03T07:19:31.957Z,13.30
2022-10-03T07:22:59.994Z,13.30
2022-10-03T07:26:26.238Z,13.40
2022-10-03T07:29:24.526Z,13.50
2022-10-03T07:33:05.160Z,13.50
2022-10-03T07:36:47.257Z,13.60
2022-10-03T07:40:12.469Z,13.60
2022-10-03T07:43:31.215Z,13.60
2022-10-03T07:47:00.048Z,13.60
2022-10-03T07:50:29.817Z,13.80
2022-10-03T07:53:40.377Z,13.70
2022-10-03T07:56:48.303Z,13.70
2022-10-03T08:00:01.035Z,13.70
2022-10-03T08:03:42.647Z,13.40
2022-10-03T08:06:38.692Z,13.20
2022-10-03T08:09:50.373Z,12.90
2022-10-03T08:13:02.426Z,12.70
2022-10-03T08:16:12.291Z,12.70
2022-10-03T08:19:16.071Z,13.00
2022-10-03T08:22:11.647Z,13.10
2022-10-03T08:25:27.008Z,12.90
2022-10-03T08:28:36.599Z,12.70
2022-10-03T08:31:49.752Z,12.80
2022-10-03T08:35:15.601Z,13.10
2022-10-03T08:38:49.848Z,13.30
2022-10-03T08:42:13.061Z,13.60
2022-10-03T08:45:29.346Z,13.80
2022-10-03T08:48:46.845Z,13.90
2022-10-03T08:51:56.386Z,14.10
2022-10-03T08:54:57.377Z,13.70
2022-10-03T08:58:10.012Z,13.70
2022-10-03T09:01:19.844Z,13.90
2022-10-03T09:04:39.412Z,14.10
2022-10-03T09:07:45.088Z,14.10
2022-10-03T09:10:47.832Z,14.20
2022-10-03T09:14:03.197Z,14.20
2022-10-03T09:17:03.805Z,14.20
2022-10-03T09:20:31.266Z,14.00
2022-10-03T09:24:02.830Z,14.00
2022-10-03T09:27:20.608Z,14.30
2022-10-03T09:30:26.229Z,15.00
2022-10-03T09:33:51.700Z,15.90
2022-10-03T09:37:21.214Z,16.30
2022-10-03T09:40:40.345Z,16.80
2022-10-03T09:44:22.277Z,16.80
2022-10-03T09:47:43.801Z,16.70
2022-10-03T09:50:57.765Z,16.30
2022-10-03T09:54:23.642Z,16.20
2022-10-03T09:57:54.492Z,16.40
2022-10-03T10:01:09.670Z,17.20
2022-10-03T10:04:54.339Z,17.80
2022-10-03T10:08:36.741Z,17.50
2022-10-03T10:11:40.873Z,17.20
2022-10-03T10:14:51.525Z,18.20
2022-10-03T10:18:05.992Z,19.20
2022-10-03T10:21:20.157Z,19.40
2022-10-03T10:24:49.707Z,19.40
2022-10-03T10:28:08.107Z,19.20
2022-10-03T10:31:42.449Z,19.00
2022-10-03T10:35:26.108Z,18.00
2022-10-03T10:38:40.844Z,17.50
2022-10-03T10:42:13.932Z,16.80
2022-10-03T10:45:25.138Z,16.30
2022-10-03T10:49:06.544Z,16.10
2022-10-03T10:52:34.993Z,16.10
2022-10-03T10:55:58.056Z,16.10
2022-10-03T10:59:22.404Z,16.50
2022-10-03T11:02:58.522Z,17.50
2022-10-03T11:06:22.371Z,18.60
2022-10-03T11:09:41.998Z,18.60
2022-10-03T11:13:04.526Z,18.50
2022-10-03T11:16:24.884Z,17.70
2022-10-03T11:19:42.336Z,17.30
2022-10-03T11:23:04.545Z,17.10
2022-10-03T11:26:23.546Z,17.20
2022-10-03T11:30:10.879Z,17.10
2022-10-03T11:33:28.915Z,17.10
2022-10-03T11:37:07.163Z,17.10
2022-10-03T11:40:06.632Z,17.90
2022-10-03T11:42:59.866Z,18.70
2022-10-03T11:45:52.251Z,19.30
2022-10-03T11:48:43.561Z,19.70
2022-10-03T11:51:42.245Z,19.00
2022-10-03T11:54:32.650Z,19.30
2022-10-03T11:57:28.305Z,19.90
2022-10-03T12:00:19.886Z,20.20
2022-10-03T12:03:20.301Z,20.40
2022-10-03T12:06:32.152Z,20.20
2022-10-03T12:09:28.204Z,20.40
2022-10-03T12:12:28.056Z,19.50
2022-10-03T12:15:34.376Z,19.30
2022-10-03T12:18:33.440Z,18.80
2022-10-03T12:21:28.092Z,18.20
2022-10-03T12:24:24.421Z,18.20
2022-10-03T12:27:21.014Z,18.30
2022-10-03T12:30:16.508Z,18.70
2022-10-03T12:33:23.554Z,18.90
2022-10-03T12:36:15.389Z,19.20
2022-10-03T12:39:24.411Z,19.40
2022-10-03T12:42:26.698Z,19.90
2022-10-03T12:45:25.069Z,20.10
2022-10-03T12:48:27.565Z,20.30
2022-10-03T12:51:31.311Z,20.40
2022-10-03T12:54:35.712Z,20.30
2022-10-03T12:57:52.767Z,20.10
2022-10-03T13:00:49.239Z,20.00
2022-10-03T13:03:49.700Z,19.80
2022-10-03T13:07:03.787Z,19.30
2022-10-03T13:10:11.142Z,19.20
2022-10-03T13:13:17.131Z,18.90
2022-10-03T13:16:21.890Z,18.90
2022-10-03T13:19:13.607Z,18.40
2022-10-03T13:22:10.177Z,18.30
2022-10-03T13:25:03.676Z,18.20
2022-10-03T13:28:02.192Z,18.20
2022-10-03T13:30:55.955Z,17.90
2022-10-03T13:33:45.569Z,17.50
2022-10-03T13:36:39.881Z,17.00
2022-10-03T13:39:30.205Z,17.10
2022-10-03T13:42:21.729Z,17.50
2022-10-03T13:45:16.151Z,17.70
2022-10-03T13:48:09.033Z,17.90
2022-10-03T13:51:02.315Z,18.00
2022-10-03T13:54:00.179Z,17.90
2022-10-03T13:56:57.727Z,17.80
2022-10-03T13:59:57.231Z,17.70
2022-10-03T14:03:01.530Z,17.80
2022-10-03T14:05:58.017Z,18.00
2022-10-03T14:09:25.402Z,18.00
2022-10-03T14:12:38.231Z,18.10
2022-10-03T14:15:45.092Z,18.10
2022-10-03T14:18:47.011Z,17.60
2022-10-03T14:21:58.710Z,17.40
2022-10-03T14:24:55.861Z,17.10
2022-10-03T14:27:48.748Z,17.20
2022-10-03T14:31:04.988Z,17.20
2022-10-03T14:33:58.959Z,17.30
2022-10-03T14:36:50.845Z,17.30
2022-10-03T14:39:41.596Z,17.30
2022-10-03T14:42:39.300Z,17.30
2022-10-03T14:45:30.966Z,17.30
2022-10-03T14:48:21.276Z,17.30
2022-10-03T14:51:16.200Z,17.20
2022-10-03T14:54:07.905Z,17.30
2022-10-03T14:56:56.605Z,17.20
2022-10-03T14:59:43.688Z,17.20
2022-10-03T15:02:35.767Z,17.20
2022-10-03T15:05:33.083Z,17.10
2022-10-03T15:08:22.446Z,17.00
2022-10-03T15:11:10.123Z,17.20
2022-10-03T15:14:02.403Z,17.30
2022-10-03T15:16:54.002Z,17.30
2022-10-03T15:19:47.777Z,17.30
2022-10-03T15:22:36.374Z,17.20
2022-10-03T15:25:28.875Z,17.00
2022-10-03T15:28:22.418Z,16.90
2022-10-03T15:31:13.159Z,16.90
2022-10-03T15:34:02.578Z,16.80
2022-10-03T15:36:52.138Z,16.80
2022-10-03T15:39:42.951Z,16.60
2022-10-03T15:42:34.523Z,16.60
2022-10-03T15:45:29.345Z,16.50
2022-10-03T15:48:20.902Z,16.60
2022-10-03T15:51:19.309Z,16.40
2022-10-03T15:54:09.902Z,16.30
2022-10-03T15:56:58.382Z,16.20
2022-10-03T15:59:47.328Z,16.20
2022-10-03T16:02:36.505Z,16.30
2022-10-03T16:05:24.898Z,16.30
2022-10-03T16:08:17.421Z,16.20
2022-10-03T16:11:10.348Z,16.00
2022-10-03T16:14:20.028Z,16.00
2022-10-03T16:17:16.840Z,16.00
2022-10-03T16:20:12.176Z,16.00
2022-10-03T16:23:00.514Z,16.10
2022-10-03T16:25:50.789Z,16.10
2022-10-03T16:28:42.162Z,16.00
2022-10-03T16:31:31.220Z,16.10
2022-10-03T16:34:21.967Z,16.10
2022-10-03T16:37:19.541Z,15.90
2022-10-03T16:40:08.626Z,15.80
2022-10-03T16:42:59.612Z,15.70
2022-10-03T16:45:48.519Z,15.70
2022-10-03T16:48:54.017Z,15.70
2022-10-03T16:51:44.464Z,15.80
2022-10-03T16:54:33.384Z,15.80
2022-10-03T16:57:25.123Z,15.70
2022-10-03T17:00:18.663Z,15.40
2022-10-03T17:03:17.065Z,15.00
2022-10-03T17:06:07.219Z,14.70
2022-10-03T17:08:59.117Z,14.40
2022-10-03T17:11:51.530Z,14.30
2022-10-03T17:14:41.886Z,14.20
2022-10-03T17:17:33.377Z,14.20
2022-10-03T17:20:30.945Z,14.20
2022-10-03T17:23:29.400Z,14.10
2022-10-03T17:26:25.950Z,13.70
2022-10-03T17:29:18.839Z,13.50
2022-10-03T17:32:15.407Z,13.30
2022-10-03T17:35:07.350Z,13.20
2022-10-03T17:38:37.551Z,13.10
2022-10-03T17:41:28.335Z,13.00
2022-10-03T17:44:27.654Z,12.90
2022-10-03T17:47:19.820Z,12.90
2022-10-03T17:50:12.464Z,12.60
2022-10-03T17:53:01.090Z,12.40
2022-10-03T17:55:48.856Z,12.20
2022-10-03T17:58:40.708Z,12.10
2022-10-03T18:01:34.261Z,12.00
2022-10-03T18:04:30.276Z,11.90
2022-10-03T18:07:20.915Z,11.90
2022-10-03T18:10:17.463Z,11.80
2022-10-03T18:13:14.717Z,11.80
2022-10-03T18:16:21.678Z,11.70
2022-10-03T18:19:23.393Z,11.70
2022-10-03T18:22:17.706Z,11.60
2022-10-03T18:25:39.038Z,11.70
2022-10-03T18:28:29.457Z,11.70
2022-10-03T18:31:20.389Z,11.60
2022-10-03T18:34:13.900Z,11.70
2022-10-03T18:37:17.780Z,11.60
2022-10-03T18:40:06.948Z,11.60
2022-10-03T18:42:54.089Z,11.30
2022-10-03T18:45:46.645Z,11.10
2022-10-03T18:48:41.870Z,11.10
2022-10-03T18:51:38.416Z,11.10
2022-10-03T18:54:34.931Z,11.30
2022-10-03T18:57:26.139Z,11.40
2022-10-03T19:00:20.102Z,11.50
2022-10-03T19:03:15.326Z,11.60
2022-10-03T19:06:06.699Z,11.50
2022-10-03T19:08:56.614Z,11.40
2022-10-03T19:11:49.478Z,11.10
2022-10-03T19:14:45.620Z,10.80
2022-10-03T19:17:36.696Z,10.70
2022-10-03T19:20:27.996Z,10.60
2022-10-03T19:23:22.957Z,10.60
2022-10-03T19:26:19.647Z,10.50
2022-10-03T19:29:09.348Z,10.60
2022-10-03T19:32:02.947Z,10.80
2022-10-03T19:34:51.777Z,10.90
2022-10-03T19:37:45.538Z,11.00
2022-10-03T19:40:45.789Z,11.00
2022-10-03T19:43:39.076Z,11.10
2022-10-03T19:46:47.713Z,11.10
2022-10-03T19:49:47.656Z,11.10
2022-10-03T19:52:36.187Z,10.90
2022-10-03T19:55:25.160Z,10.80
2022-10-03T19:58:23.195Z,10.60
2022-10-03T20:01:10.811Z,10.60
2022-10-03T20:03:58.410Z,10.50
2022-10-03T20:06:50.361Z,10.30
2022-10-03T20:09:38.098Z,10.20
2022-10-03T20:12:27.660Z,10.10
2022-10-03T20:15:22.920Z,10.10
2022-10-03T20:18:13.853Z,10.10
2022-10-03T20:21:02.766Z,10.20
2022-10-03T20:23:49.852Z,10.30
2022-10-03T20:26:40.537Z,10.30
2022-10-03T20:29:32.736Z,10.40
2022-10-03T20:32:21.600Z,10.30
2022-10-03T20:35:13.720Z,10.20
2022-10-03T20:38:06.099Z,10.00
2022-10-03T20:41:01.193Z,9.80
2022-10-03T20:43:56.771Z,9.80
2022-10-03T20:46:46.396Z,9.60
2022-10-03T20:49:38.251Z,9.60
2022-10-03T20:52:26.545Z,9.50
2022-10-03T20:55:20.819Z,9.50
2022-10-03T20:58:19.090Z,9.70
2022-10-03T21:01:10.086Z,9.90
2022-10-03T21:04:05.913Z,9.80
2022-10-03T21:07:00.089Z,9.90
2022-10-03T21:09:51.628Z,10.10
2022-10-03T21:12:44.565Z,10.20
2022-10-03T21:15:39.046Z,10.10
2022-10-03T21:18:28.453Z,10.10
2022-10-03T21:21:19.688Z,10.10
2022-10-03T21:24:14.082Z,10.20
2022-10-03T21:27:03.411Z,10.30
2022-10-03T21:29:59.029Z,10.30
2022-10-03T21:33:00.225Z,10.20
2022-10-03T21:35:50.227Z,10.00
2022-10-03T21:38:42.960Z,9.80
2022-10-03T21:41:41.377Z,9.50
2022-10-03T21:44:44.146Z,9.30
2022-10-03T21:47:40.833Z,9.20
2022-10-03T21:50:32.497Z,9.20
2022-10-03T21:53:24.847Z,9.10
2022-10-03T21:56:46.969Z,9.00
2022-10-03T21:59:57.748Z,9.00
2022-10-03T22:03:01.149Z,9.00
2022-10-03T22:05:54.923Z,9.10
2022-10-03T22:08:45.194Z,9.30
2022-10-03T22:11:43.082Z,9.40
2022-10-03T22:14:43.005Z,9.20
2022-10-03T22:17:37.126Z,9.10
2022-10-03T22:20:24.661Z,8.80
2022-10-03T22:23:28.652Z,8.70
2022-10-03T22:26:22.526Z,8.70
2022-10-03T22:29:22.132Z,8.70
2022-10-03T22:32:17.246Z,8.80
2022-10-03T22:35:11.024Z,8.80
2022-10-03T22:37:58.364Z,8.80
2022-10-03T22:40:47.341Z,9.00
2022-10-03T22:43:36.830Z,9.10
2022-10-03T22:46:27.417Z,8.90
2022-10-03T22:49:20.286Z,8.90
2022-10-03T22:52:12.456Z,8.90
2022-10-03T22:55:01.131Z,9.00
2022-10-03T22:57:48.498Z,9.10
2022-10-03T23:00:35.802Z,9.10
2022-10-03T23:03:26.671Z,9.10
2022-10-03T23:06:39.885Z,9.20
2022-10-03T23:09:33.694Z,8.90
2022-10-03T23:12:21.461Z,8.70
2022-10-03T23:15:11.378Z,8.70
2022-10-03T23:18:34.853Z,8.60
2022-10-03T23:21:22.770Z,8.80
2022-10-03T23:24:16.602Z,9.00
2022-10-03T23:27:40.242Z,9.00
2022-10-03T23:30:50.382Z,8.80
2022-10-03T23:33:51.196Z,8.90
2022-10-03T23:37:00.071Z,9.00
2022-10-03T23:40:34.195Z,9.10
2022-10-03T23:43:28.577Z,9.20
2022-10-03T23:46:18.690Z,9.20
2022-10-03T23:49:07.097Z,9.20
2022-10-03T23:51:55.739Z,9.30
2022-10-03T23:54:43.975Z,9.30
2022-10-03T23:57:36.801Z,9.10
